createdAt,value
2022-12-17T00:04:43.213Z,0.00
2022-12-17T00:09:48.591Z,0.00
2022-12-17T00:14:44.088Z,0.00
2022-12-17T00:20:09.023Z,0.00
2022-12-17T00:25:12.092Z,0.00
2022-12-17T00:30:04.493Z,0.00
2022-12-17T00:35:04.472Z,0.00
2022-12-17T00:40:05.171Z,0.00
2022-12-17T00:45:04.319Z,0.00
2022-12-17T00:50:04.258Z,0.00
2022-12-17T00:55:04.219Z,0.00
2022-12-17T01:00:04.095Z,0.00
2022-12-17T01:10:39.624Z,0.00
2022-12-17T01:15:39.564Z,0.00
2022-12-17T01:20:39.517Z,0.00
2022-12-17T01:25:39.452Z,0.00
2022-12-17T01:30:39.388Z,0.00
2022-12-17T01:35:39.324Z,0.00
2022-12-17T01:40:39.275Z,0.00
2022-12-17T01:45:39.228Z,0.00
2022-12-17T01:50:39.124Z,0.00
2022-12-17T01:55:39.073Z,0.00
2022-12-17T02:00:38.991Z,0.00
2022-12-17T02:05:38.939Z,0.00
2022-12-17T02:10:38.864Z,0.00
2022-12-17T02:15:38.806Z,0.00
2022-12-17T02:20:38.719Z,0.00
2022-12-17T02:25:38.690Z,0.00
2022-12-17T02:30:38.583Z,0.00
2022-12-17T02:35:38.551Z,0.00
2022-12-17T02:40:38.490Z,0.00
2022-12-17T02:45:38.494Z,0.00
2022-12-17T02:50:38.380Z,0.00
2022-12-17T02:55:38.339Z,0.00
2022-12-17T03:00:38.212Z,0.00
2022-12-17T03:05:45.961Z,0.00
2022-12-17T03:10:39.106Z,0.00
2022-12-17T03:15:38.027Z,0.00
2022-12-17T03:20:37.956Z,0.00
2022-12-17T03:25:37.915Z,0.00
2022-12-17T03:30:39.059Z,0.00
2022-12-17T03:35:37.786Z,0.00
2022-12-17T03:40:37.694Z,0.00
2022-12-17T03:45:38.684Z,0.00
2022-12-17T03:50:37.580Z,0.00
2022-12-17T03:55:37.519Z,0.00
2022-12-17T04:00:37.464Z,0.00
2022-12-17T04:05:37.376Z,0.00
2022-12-17T04:10:37.327Z,0.00
2022-12-17T04:15:37.329Z,0.00
2022-12-17T04:20:37.189Z,0.00
2022-12-17T04:25:37.171Z,0.00
2022-12-17T04:30:37.146Z,0.00
2022-12-17T04:35:37.005Z,0.00
2022-12-17T04:40:36.928Z,0.00
2022-12-17T04:45:36.876Z,0.00
2022-12-17T04:50:36.804Z,0.00
2022-12-17T04:55:36.763Z,0.00
2022-12-17T05:00:36.643Z,0.00
2022-12-17T05:05:36.634Z,0.00
2022-12-17T05:10:36.544Z,0.00
2022-12-17T05:15:53.043Z,0.00
2022-12-17T05:20:42.160Z,0.00
2022-12-17T05:25:42.082Z,0.00
2022-12-17T05:30:42.030Z,0.00
2022-12-17T05:35:41.938Z,0.00
2022-12-17T05:40:41.892Z,0.00
2022-12-17T05:45:41.837Z,0.00
2022-12-17T05:50:43.490Z,0.00
2022-12-17T05:55:41.706Z,0.00
2022-12-17T06:00:41.640Z,0.00
2022-12-17T06:05:41.566Z,0.00
2022-12-17T06:10:41.501Z,0.00
2022-12-17T06:15:41.501Z,0.00
2022-12-17T06:20:41.375Z,0.00
2022-12-17T06:25:41.320Z,0.00
2022-12-17T06:30:41.236Z,0.00
2022-12-17T06:35:41.182Z,0.00
2022-12-17T06:40:41.105Z,0.00
2022-12-17T06:45:41.058Z,0.00
2022-12-17T06:50:40.986Z,0.00
2022-12-17T06:55:40.928Z,0.00
2022-12-17T07:00:40.924Z,0.00
2022-12-17T07:05:40.838Z,4.00
2022-12-17T07:10:40.723Z,12.00
2022-12-17T07:15:40.684Z,20.00
2022-12-17T07:20:40.615Z,32.00
2022-12-17T07:25:45.669Z,48.00
2022-12-17T07:30:41.483Z,68.00
2022-12-17T07:35:40.420Z,92.00
2022-12-17T07:40:40.336Z,116.00
2022-12-17T07:45:40.328Z,136.00
2022-12-17T07:50:40.208Z,160.00
2022-12-17T07:55:40.166Z,188.00
2022-12-17T08:00:43.466Z,228.00
2022-12-17T08:05:41.043Z,272.00
2022-12-17T08:10:39.952Z,328.00
2022-12-17T08:15:39.880Z,392.00
2022-12-17T08:20:39.817Z,436.00
2022-12-17T08:25:39.772Z,476.00
2022-12-17T08:30:39.754Z,588.00
2022-12-17T08:35:39.674Z,636.00
2022-12-17T08:40:39.561Z,760.00
2022-12-17T08:45:39.541Z,828.00
2022-12-17T08:50:39.444Z,896.00
2022-12-17T08:55:39.723Z,908.00
2022-12-17T09:00:39.328Z,968.00
2022-12-17T09:05:39.281Z,964.00
2022-12-17T09:10:39.164Z,1028.00
2022-12-17T09:15:39.139Z,1032.00
2022-12-17T09:20:39.051Z,1076.00
2022-12-17T09:25:39.003Z,1132.00
2022-12-17T09:30:39.001Z,1200.00
2022-12-17T09:35:38.873Z,1208.00
2022-12-17T09:40:38.793Z,1380.00
2022-12-17T09:45:38.788Z,1508.00
2022-12-17T09:50:38.664Z,1564.00
2022-12-17T09:55:38.615Z,1688.00
2022-12-17T10:00:38.565Z,1992.00
2022-12-17T10:05:38.504Z,1952.00
2022-12-17T10:10:38.406Z,1988.00
2022-12-17T10:15:39.125Z,2148.00
2022-12-17T10:20:38.281Z,2392.00
2022-12-17T10:25:38.221Z,2700.00
2022-12-17T10:30:38.245Z,2932.00
2022-12-17T10:35:38.103Z,2612.00
2022-12-17T10:40:38.033Z,2604.00
2022-12-17T10:45:37.975Z,2348.00
2022-12-17T10:50:37.920Z,2288.00
2022-12-17T10:55:37.854Z,2456.00
2022-12-17T11:00:37.777Z,2796.00
2022-12-17T11:05:38.513Z,2520.00
2022-12-17T11:10:37.637Z,2528.00
2022-12-17T11:15:37.695Z,2268.00
2022-12-17T11:20:37.525Z,2968.00
2022-12-17T11:25:37.466Z,2684.00
2022-12-17T11:30:37.394Z,2400.00
2022-12-17T11:35:37.345Z,2508.00
2022-12-17T11:40:37.302Z,2408.00
2022-12-17T11:45:37.231Z,2664.00
2022-12-17T11:50:37.151Z,2748.00
2022-12-17T11:55:37.168Z,2116.00
2022-12-17T12:00:36.982Z,2776.00
2022-12-17T12:05:36.966Z,1932.00
2022-12-17T12:10:36.890Z,2584.00
2022-12-17T12:15:36.825Z,2632.00
2022-12-17T12:20:36.755Z,2724.00
2022-12-17T12:25:36.714Z,3076.00
2022-12-17T12:30:36.602Z,3248.00
2022-12-17T12:35:36.570Z,2944.00
2022-12-17T12:40:36.493Z,3080.00
2022-12-17T12:45:36.482Z,3680.00
2022-12-17T12:50:36.359Z,4312.00
2022-12-17T12:55:36.318Z,4468.00
2022-12-17T13:00:36.242Z,4440.00
2022-12-17T13:05:36.202Z,4216.00
2022-12-17T13:10:36.120Z,3976.00
2022-12-17T13:15:36.080Z,3376.00
2022-12-17T13:20:35.994Z,2764.00
2022-12-17T13:25:35.919Z,2448.00
2022-12-17T13:30:35.857Z,2760.00
2022-12-17T13:35:35.914Z,2620.00
2022-12-17T13:40:35.742Z,2048.00
2022-12-17T13:45:35.758Z,1884.00
2022-12-17T13:50:36.673Z,1816.00
2022-12-17T13:55:35.561Z,1756.00
2022-12-17T14:00:35.450Z,1456.00
2022-12-17T14:05:35.418Z,1332.00
2022-12-17T14:10:35.340Z,1224.00
2022-12-17T14:15:35.331Z,1124.00
2022-12-17T14:20:35.238Z,1052.00
2022-12-17T14:25:35.174Z,980.00
2022-12-17T14:30:35.098Z,884.00
2022-12-17T14:35:35.070Z,804.00
2022-12-17T14:40:35.815Z,712.00
2022-12-17T14:45:34.965Z,644.00
2022-12-17T14:50:34.855Z,560.00
2022-12-17T14:55:34.825Z,480.00
2022-12-17T15:00:34.707Z,404.00
2022-12-17T15:05:34.648Z,332.00
2022-12-17T15:10:34.584Z,268.00
2022-12-17T15:15:34.492Z,208.00
2022-12-17T15:20:34.458Z,156.00
2022-12-17T15:25:37.623Z,104.00
2022-12-17T15:30:35.391Z,68.00
2022-12-17T15:35:34.247Z,44.00
2022-12-17T15:40:34.180Z,24.00
2022-12-17T15:45:34.150Z,12.00
2022-12-17T15:50:34.089Z,4.00
2022-12-17T15:55:34.010Z,0.00
2022-12-17T16:00:33.911Z,0.00
2022-12-17T16:05:33.879Z,0.00
2022-12-17T16:10:33.826Z,0.00
2022-12-17T16:15:33.836Z,0.00
2022-12-17T16:20:33.702Z,0.00
2022-12-17T16:25:33.640Z,0.00
2022-12-17T16:30:33.551Z,0.00
2022-12-17T16:35:33.520Z,0.00
2022-12-17T16:40:33.421Z,0.00
2022-12-17T16:45:33.366Z,0.00
2022-12-17T16:50:33.315Z,0.00
2022-12-17T16:55:33.282Z,0.00
2022-12-17T17:00:33.205Z,0.00
2022-12-17T17:05:33.180Z,0.00
2022-12-17T17:10:33.062Z,0.00
2022-12-17T17:15:33.054Z,0.00
2022-12-17T17:20:32.953Z,0.00
2022-12-17T17:25:50.594Z,0.00
2022-12-17T17:30:33.823Z,0.00
2022-12-17T17:35:32.744Z,0.00
2022-12-17T17:40:32.701Z,0.00
2022-12-17T17:45:32.637Z,0.00
2022-12-17T17:50:32.548Z,0.00
2022-12-17T17:55:32.523Z,0.00
2022-12-17T18:00:32.469Z,0.00
2022-12-17T18:05:35.798Z,0.00
2022-12-17T18:10:33.341Z,0.00
2022-12-17T18:15:32.287Z,0.00
2022-12-17T18:20:32.199Z,0.00
2022-12-17T18:25:37.301Z,0.00
2022-12-17T18:30:33.085Z,0.00
2022-12-17T18:35:32.115Z,0.00
2022-12-17T18:40:33.576Z,0.00
2022-12-17T18:45:31.907Z,0.00
2022-12-17T18:50:31.843Z,0.00
2022-12-17T18:55:31.784Z,0.00
2022-12-17T19:00:31.861Z,0.00
2022-12-17T19:05:31.700Z,0.00
2022-12-17T19:10:31.593Z,0.00
2022-12-17T19:15:31.533Z,0.00
2022-12-17T19:20:31.477Z,0.00
2022-12-17T19:25:31.433Z,0.00
2022-12-17T19:30:31.352Z,0.00
2022-12-17T19:35:31.312Z,0.00
2022-12-17T19:40:31.257Z,0.00
2022-12-17T19:45:31.215Z,0.00
2022-12-17T19:50:31.117Z,0.00
2022-12-17T19:55:31.051Z,0.00
2022-12-17T20:00:31.034Z,0.00
2022-12-17T20:05:30.938Z,0.00
2022-12-17T20:10:30.877Z,0.00
2022-12-17T20:15:30.839Z,0.00
2022-12-17T20:20:31.590Z,0.00
2022-12-17T20:25:30.725Z,0.00
2022-12-17T20:30:30.648Z,0.00
2022-12-17T20:35:30.580Z,0.00
2022-12-17T20:40:30.482Z,0.00
2022-12-17T20:45:30.500Z,0.00
2022-12-17T20:50:30.401Z,0.00
2022-12-17T20:55:31.372Z,0.00
2022-12-17T21:00:30.247Z,0.00
2022-12-17T21:05:30.205Z,0.00
2022-12-17T21:10:30.158Z,0.00
2022-12-17T21:15:30.080Z,0.00
2022-12-17T21:20:30.022Z,0.00
2022-12-17T21:25:29.968Z,0.00
2022-12-17T21:30:29.931Z,0.00
2022-12-17T21:35:29.857Z,0.00
2022-12-17T21:40:29.784Z,0.00
2022-12-17T21:45:29.736Z,0.00
2022-12-17T21:50:29.656Z,0.00
2022-12-17T21:55:29.605Z,0.00
2022-12-17T22:00:29.539Z,0.00
2022-12-17T22:05:29.495Z,0.00
2022-12-17T22:10:40.561Z,0.00
2022-12-17T22:15:34.991Z,0.00
2022-12-17T22:20:30.278Z,0.00
2022-12-17T22:25:29.249Z,0.00
2022-12-17T22:30:29.159Z,0.00
2022-12-17T22:38:27.026Z,0.00
2022-12-17T22:44:30.506Z,0.00
2022-12-17T22:45:29.968Z,0.00
2022-12-17T22:50:32.213Z,0.00
2022-12-17T22:55:29.913Z,0.00
2022-12-17T23:00:28.800Z,0.00
2022-12-17T23:05:28.749Z,0.00
2022-12-17T23:10:28.656Z,0.00
2022-12-17T23:15:28.721Z,0.00
2022-12-17T23:20:28.576Z,0.00
2022-12-17T23:25:28.535Z,0.00
2022-12-17T23:30:28.426Z,0.00
2022-12-17T23:35:28.382Z,0.00
2022-12-17T23:40:28.321Z,0.00
2022-12-17T23:45:28.243Z,0.00
2022-12-17T23:50:28.214Z,0.00
2022-12-17T23:55:28.166Z,0.00
